createdAt,value
2023-02-04T00:01:58.306Z,11.20
2023-02-04T00:04:24.864Z,12.55
2023-02-04T00:06:51.386Z,11.80
2023-02-04T00:09:18.034Z,14.30
2023-02-04T00:11:45.571Z,13.50
2023-02-04T00:14:12.218Z,15.30
2023-02-04T00:16:38.912Z,13.07
2023-02-04T00:19:05.461Z,9.88
2023-02-04T00:21:32.099Z,12.15
2023-02-04T00:23:59.366Z,16.10
2023-02-04T00:26:25.820Z,16.65
2023-02-04T00:28:52.217Z,13.57
2023-02-04T00:31:18.927Z,13.23
2023-02-04T00:33:45.458Z,9.85
2023-02-04T00:36:12.026Z,13.50
2023-02-04T00:38:38.474Z,13.65
2023-02-04T00:41:06.556Z,14.73
2023-02-04T00:43:33.080Z,10.05
2023-02-04T00:45:59.819Z,18.08
2023-02-04T00:48:26.877Z,14.27
2023-02-04T00:50:54.209Z,16.83
2023-02-04T00:53:20.880Z,13.68
2023-02-04T00:55:47.383Z,13.52
2023-02-04T00:58:13.903Z,9.20
2023-02-04T01:00:40.618Z,16.05
2023-02-04T01:03:07.267Z,11.35
2023-02-04T01:05:33.982Z,19.33
2023-02-04T01:08:00.674Z,13.57
2023-02-04T01:10:28.290Z,9.98
2023-02-04T01:12:55.151Z,10.82
2023-02-04T01:15:22.806Z,14.02
2023-02-04T01:17:49.941Z,11.82
2023-02-04T01:20:16.757Z,15.30
2023-02-04T01:22:43.226Z,14.18
2023-02-04T01:25:10.028Z,12.32
2023-02-04T01:27:36.693Z,15.70
2023-02-04T01:30:04.802Z,11.18
2023-02-04T01:32:31.393Z,12.50
2023-02-04T01:34:57.990Z,13.27
2023-02-04T01:37:24.591Z,15.10
2023-02-04T01:39:51.080Z,20.05
2023-02-04T01:42:17.781Z,19.00
2023-02-04T01:44:44.378Z,13.50
2023-02-04T01:47:10.930Z,15.98
2023-02-04T01:49:37.719Z,19.42
2023-02-04T01:52:04.834Z,20.08
2023-02-04T01:54:32.335Z,12.27
2023-02-04T01:56:59.242Z,16.42
2023-02-04T01:59:26.666Z,11.77
2023-02-04T02:01:54.200Z,12.68
2023-02-04T02:04:33.140Z,15.10
2023-02-04T02:07:03.975Z,10.60
2023-02-04T02:09:33.420Z,14.27
2023-02-04T02:12:02.941Z,19.83
2023-02-04T02:14:29.516Z,16.80
2023-02-04T02:16:56.145Z,15.48
2023-02-04T02:19:28.612Z,17.77
2023-02-04T02:22:13.255Z,17.38
2023-02-04T02:24:39.848Z,15.43
2023-02-04T02:27:10.707Z,18.88
2023-02-04T02:29:39.806Z,14.57
2023-02-04T02:32:08.117Z,15.52
2023-02-04T02:34:35.299Z,14.68
2023-02-04T02:37:02.983Z,15.50
2023-02-04T02:39:29.795Z,19.27
2023-02-04T02:41:57.421Z,15.32
2023-02-04T02:44:25.481Z,13.48
2023-02-04T02:46:53.761Z,21.40
2023-02-04T02:49:21.048Z,18.98
2023-02-04T02:51:48.556Z,17.63
2023-02-04T02:54:30.016Z,17.23
2023-02-04T02:56:57.714Z,17.38
2023-02-04T02:59:25.612Z,16.92
2023-02-04T03:01:58.494Z,21.20
2023-02-04T03:04:28.823Z,17.67
2023-02-04T03:06:56.182Z,13.65
2023-02-04T03:09:25.135Z,23.80
2023-02-04T03:11:52.212Z,18.65
2023-02-04T03:14:19.652Z,11.80
2023-02-04T03:16:47.933Z,17.65
2023-02-04T03:19:14.864Z,15.13
2023-02-04T03:21:42.115Z,17.33
2023-02-04T03:24:09.474Z,15.95
2023-02-04T03:26:36.088Z,15.68
2023-02-04T03:29:03.036Z,19.52
2023-02-04T03:31:29.803Z,16.67
2023-02-04T03:33:56.599Z,15.13
2023-02-04T03:36:23.168Z,17.45
2023-02-04T03:38:57.971Z,17.83
2023-02-04T03:41:24.687Z,18.08
2023-02-04T03:43:51.202Z,13.23
2023-02-04T03:46:17.747Z,18.90
2023-02-04T03:48:44.318Z,20.90
2023-02-04T03:51:10.922Z,16.13
2023-02-04T03:53:37.592Z,18.08
2023-02-04T03:56:04.428Z,18.98
2023-02-04T03:58:30.911Z,20.20
2023-02-04T04:00:57.477Z,17.10
2023-02-04T04:03:24.182Z,18.65
2023-02-04T04:05:50.654Z,16.80
2023-02-04T04:08:17.206Z,12.15
2023-02-04T04:10:43.709Z,10.93
2023-02-04T04:13:10.293Z,12.95
2023-02-04T04:15:36.772Z,18.15
2023-02-04T04:18:04.606Z,16.23
2023-02-04T04:20:31.497Z,13.77
2023-02-04T04:22:58.209Z,16.65
2023-02-04T04:25:25.057Z,11.95
2023-02-04T04:27:51.662Z,18.60
2023-02-04T04:30:18.393Z,12.68
2023-02-04T04:32:44.996Z,21.50
2023-02-04T04:35:11.587Z,20.98
2023-02-04T04:37:38.158Z,16.65
2023-02-04T04:40:04.905Z,15.40
2023-02-04T04:42:31.510Z,13.60
2023-02-04T04:44:58.027Z,17.25
2023-02-04T04:47:24.614Z,22.05
2023-02-04T04:49:51.200Z,17.20
2023-02-04T04:52:17.702Z,14.05
2023-02-04T04:54:44.270Z,18.05
2023-02-04T04:57:11.081Z,17.98
2023-02-04T04:59:37.591Z,15.98
2023-02-04T05:02:04.118Z,22.67
2023-02-04T05:04:30.686Z,13.63
2023-02-04T05:06:57.225Z,12.48
2023-02-04T05:09:23.975Z,14.25
2023-02-04T05:11:50.608Z,16.95
2023-02-04T05:14:17.162Z,13.18
2023-02-04T05:16:43.781Z,13.32
2023-02-04T05:19:10.412Z,16.50
2023-02-04T05:21:36.898Z,12.52
2023-02-04T05:24:03.747Z,15.32
2023-02-04T05:26:31.392Z,13.93
2023-02-04T05:29:00.582Z,14.65
2023-02-04T05:31:27.539Z,19.90
2023-02-04T05:33:54.653Z,11.60
2023-02-04T05:36:21.397Z,15.23
2023-02-04T05:38:47.893Z,16.83
2023-02-04T05:41:14.643Z,16.13
2023-02-04T05:43:41.515Z,13.30
2023-02-04T05:46:08.094Z,14.95
2023-02-04T05:48:34.659Z,15.13
2023-02-04T05:51:01.163Z,13.38
2023-02-04T05:53:27.746Z,16.80
2023-02-04T05:55:54.313Z,12.77
2023-02-04T05:58:20.831Z,15.73
2023-02-04T06:00:47.274Z,13.63
2023-02-04T06:03:14.541Z,11.80
2023-02-04T06:05:41.168Z,14.55
2023-02-04T06:08:07.756Z,14.43
2023-02-04T06:10:34.330Z,15.93
2023-02-04T06:13:01.154Z,13.65
2023-02-04T06:15:27.788Z,16.25
2023-02-04T06:17:54.408Z,17.92
2023-02-04T06:20:21.062Z,23.42
2023-02-04T06:22:51.663Z,23.98
2023-02-04T06:25:18.999Z,17.88
2023-02-04T06:27:45.747Z,18.20
2023-02-04T06:30:13.301Z,22.23
2023-02-04T06:32:40.198Z,16.70
2023-02-04T06:35:07.505Z,15.68
2023-02-04T06:37:34.063Z,14.10
2023-02-04T06:40:00.497Z,14.77
2023-02-04T06:42:27.058Z,13.25
2023-02-04T06:44:53.825Z,16.73
2023-02-04T06:47:20.622Z,14.35
2023-02-04T06:49:47.231Z,13.45
2023-02-04T06:52:13.845Z,18.30
2023-02-04T06:54:40.383Z,22.50
2023-02-04T06:57:06.945Z,21.10
2023-02-04T06:59:38.381Z,15.57
2023-02-04T07:02:07.216Z,15.75
2023-02-04T07:04:35.496Z,14.05
2023-02-04T07:07:02.062Z,19.92
2023-02-04T07:09:28.692Z,16.92
2023-02-04T07:11:55.433Z,17.83
2023-02-04T07:14:21.984Z,19.17
2023-02-04T07:16:48.560Z,14.80
2023-02-04T07:19:15.176Z,16.77
2023-02-04T07:21:41.884Z,18.98
2023-02-04T07:24:08.328Z,18.38
2023-02-04T07:26:34.810Z,16.70
2023-02-04T07:29:01.373Z,15.55
2023-02-04T07:31:27.958Z,15.38
2023-02-04T07:33:54.837Z,14.73
2023-02-04T07:36:22.266Z,18.67
2023-02-04T07:38:48.728Z,19.42
2023-02-04T07:41:15.365Z,15.65
2023-02-04T07:43:41.990Z,16.90
2023-02-04T07:46:08.502Z,20.52
2023-02-04T07:48:35.017Z,13.55
2023-02-04T07:51:01.716Z,12.77
2023-02-04T07:53:28.359Z,16.52
2023-02-04T07:55:55.688Z,17.02
2023-02-04T07:58:23.048Z,17.20
2023-02-04T08:00:49.592Z,21.10
2023-02-04T08:03:16.405Z,15.63
2023-02-04T08:05:43.240Z,17.85
2023-02-04T08:08:09.975Z,15.70
2023-02-04T08:10:36.487Z,15.32
2023-02-04T08:13:03.200Z,17.92
2023-02-04T08:15:29.766Z,19.55
2023-02-04T08:17:56.392Z,17.33
2023-02-04T08:20:23.000Z,15.38
2023-02-04T08:22:49.655Z,17.35
2023-02-04T08:25:16.581Z,18.50
2023-02-04T08:27:43.402Z,21.65
2023-02-04T08:30:10.657Z,17.23
2023-02-04T08:32:37.818Z,17.52
2023-02-04T08:35:06.467Z,15.80
2023-02-04T08:37:33.410Z,14.85
2023-02-04T08:40:00.093Z,21.13
2023-02-04T08:42:27.136Z,15.95
2023-02-04T08:44:53.756Z,18.92
2023-02-04T08:47:20.561Z,21.58
2023-02-04T08:49:47.200Z,19.25
2023-02-04T08:52:13.768Z,17.52
2023-02-04T08:54:40.350Z,16.65
2023-02-04T08:57:07.125Z,20.20
2023-02-04T08:59:33.786Z,20.98
2023-02-04T09:02:00.453Z,16.33
2023-02-04T09:04:28.527Z,13.68
2023-02-04T09:06:55.567Z,18.73
2023-02-04T09:09:23.288Z,19.58
2023-02-04T09:14:17.296Z,19.20
2023-02-04T09:16:43.971Z,18.83
2023-02-04T09:19:14.591Z,19.10
2023-02-04T09:21:41.300Z,16.38
2023-02-04T09:24:08.209Z,16.17
2023-02-04T09:26:34.990Z,23.77
2023-02-04T09:29:01.638Z,16.85
2023-02-04T09:31:28.435Z,20.55
2023-02-04T09:33:55.067Z,19.55
2023-02-04T09:36:21.868Z,23.67
2023-02-04T09:38:48.593Z,17.08
2023-02-04T09:41:15.325Z,14.55
2023-02-04T09:43:46.536Z,18.70
2023-02-04T09:46:32.289Z,18.30
2023-02-04T09:49:00.302Z,21.25
2023-02-04T09:51:30.297Z,18.33
2023-02-04T09:54:09.053Z,15.10
2023-02-04T09:56:37.225Z,23.42
2023-02-04T09:59:10.914Z,19.23
2023-02-04T10:01:37.846Z,16.13
2023-02-04T10:04:05.280Z,18.15
2023-02-04T10:06:32.701Z,16.38
2023-02-04T10:09:00.542Z,18.17
2023-02-04T10:11:31.185Z,14.32
2023-02-04T10:13:57.834Z,19.70
2023-02-04T10:16:32.083Z,20.33
2023-02-04T10:19:08.174Z,16.88
2023-02-04T10:21:40.555Z,18.02
2023-02-04T10:24:14.298Z,14.73
2023-02-04T10:26:41.053Z,19.77
2023-02-04T10:31:56.353Z,20.55
2023-02-04T10:34:32.733Z,18.15
2023-02-04T10:36:59.445Z,18.90
2023-02-04T10:39:28.326Z,15.25
2023-02-04T10:42:00.095Z,19.05
2023-02-04T10:44:32.403Z,20.35
2023-02-04T10:47:18.169Z,18.80
2023-02-04T10:50:00.591Z,19.88
2023-02-04T10:52:36.767Z,18.10
2023-02-04T10:55:07.502Z,24.50
2023-02-04T10:57:39.234Z,20.52
2023-02-04T11:00:15.299Z,17.83
2023-02-04T11:02:58.875Z,22.17
2023-02-04T11:05:32.446Z,25.58
2023-02-04T11:07:59.723Z,20.92
2023-02-04T11:10:34.527Z,22.33
2023-02-04T11:13:06.022Z,20.13
2023-02-04T11:15:40.227Z,18.45
2023-02-04T11:18:29.974Z,19.67
2023-02-04T11:20:59.052Z,19.35
2023-02-04T11:23:25.558Z,18.80
2023-02-04T11:26:07.656Z,17.98
2023-02-04T11:29:09.333Z,14.30
2023-02-04T11:31:56.985Z,13.07
2023-02-04T11:34:23.438Z,17.15
2023-02-04T11:37:01.992Z,19.27
2023-02-04T11:39:34.244Z,14.35
2023-02-04T11:42:01.165Z,17.98
2023-02-04T11:44:28.558Z,15.82
2023-02-04T11:46:56.617Z,16.67
2023-02-04T11:49:25.440Z,19.50
2023-02-04T11:51:52.067Z,17.73
2023-02-04T11:54:19.390Z,14.27
2023-02-04T11:56:46.989Z,15.18
2023-02-04T11:59:14.858Z,18.65
2023-02-04T12:01:41.659Z,13.27
2023-02-04T12:04:22.399Z,17.08
2023-02-04T12:07:02.350Z,13.23
2023-02-04T12:09:32.424Z,16.33
2023-02-04T12:12:01.163Z,15.15
2023-02-04T12:14:36.909Z,14.85
2023-02-04T12:17:20.555Z,18.70
2023-02-04T12:19:47.081Z,14.02
2023-02-04T12:22:15.749Z,15.43
2023-02-04T12:24:43.930Z,19.50
2023-02-04T12:27:10.509Z,15.98
2023-02-04T12:29:37.092Z,15.88
2023-02-04T12:32:04.199Z,14.75
2023-02-04T12:34:31.083Z,17.65
2023-02-04T12:36:57.620Z,21.95
2023-02-04T12:39:24.037Z,15.20
2023-02-04T12:41:50.508Z,11.65
2023-02-04T12:44:17.534Z,15.07
2023-02-04T12:46:44.127Z,15.88
2023-02-04T12:49:10.771Z,17.30
2023-02-04T12:51:37.311Z,11.13
2023-02-04T12:54:03.937Z,16.90
2023-02-04T12:56:30.494Z,16.10
2023-02-04T12:58:57.098Z,16.95
2023-02-04T13:01:23.667Z,14.52
2023-02-04T13:03:50.190Z,19.25
2023-02-04T13:06:16.780Z,16.90
2023-02-04T13:08:43.757Z,19.23
2023-02-04T13:11:10.255Z,13.32
2023-02-04T13:13:36.833Z,15.60
2023-02-04T13:16:03.481Z,20.80
2023-02-04T13:18:30.118Z,19.52
2023-02-04T13:20:56.710Z,19.38
2023-02-04T13:23:23.168Z,19.13
2023-02-04T13:25:49.656Z,16.05
2023-02-04T13:28:16.361Z,15.32
2023-02-04T13:30:42.911Z,15.70
2023-02-04T13:33:09.525Z,14.77
2023-02-04T13:35:36.104Z,16.65
2023-02-04T13:38:02.644Z,14.52
2023-02-04T13:40:29.194Z,16.80
2023-02-04T13:42:55.745Z,14.48
2023-02-04T13:45:22.377Z,15.45
2023-02-04T13:47:49.028Z,13.27
2023-02-04T13:50:25.934Z,17.27
2023-02-04T13:52:52.452Z,19.13
2023-02-04T13:55:18.938Z,16.00
2023-02-04T13:57:45.446Z,17.50
2023-02-04T14:00:12.681Z,15.60
2023-02-04T14:02:39.459Z,17.27
2023-02-04T14:05:06.507Z,17.15
2023-02-04T14:07:34.132Z,15.40
2023-02-04T14:10:00.682Z,12.35
2023-02-04T14:12:28.527Z,15.65
2023-02-04T14:14:55.170Z,12.98
2023-02-04T14:17:21.646Z,15.50
2023-02-04T14:19:48.231Z,15.90
2023-02-04T14:22:14.784Z,18.90
2023-02-04T14:24:42.777Z,18.48
2023-02-04T14:27:10.073Z,21.00
2023-02-04T14:29:36.549Z,17.48
2023-02-04T14:32:03.207Z,17.40
2023-02-04T14:34:29.924Z,17.58
2023-02-04T14:36:56.480Z,14.07
2023-02-04T14:39:23.079Z,17.33
2023-02-04T14:41:49.724Z,12.43
2023-02-04T14:44:20.904Z,16.67
2023-02-04T14:46:49.043Z,15.35
2023-02-04T14:49:18.610Z,15.60
2023-02-04T14:51:45.090Z,26.45
2023-02-04T14:54:11.643Z,28.15
2023-02-04T14:56:47.258Z,18.60
2023-02-04T14:59:14.006Z,41.92
2023-02-04T15:01:42.717Z,68.43
2023-02-04T15:04:11.182Z,20.35
2023-02-04T15:06:38.739Z,22.83
2023-02-04T15:09:05.392Z,31.27
2023-02-04T15:11:32.325Z,17.73
2023-02-04T15:13:58.877Z,38.50
2023-02-04T15:16:26.584Z,46.28
2023-02-04T15:18:53.404Z,40.95
2023-02-04T15:21:19.989Z,42.92
2023-02-04T15:23:48.320Z,30.90
2023-02-04T15:28:41.704Z,25.23
2023-02-04T15:31:08.608Z,18.08
2023-02-04T15:33:35.185Z,47.08
2023-02-04T15:36:01.792Z,72.82
2023-02-04T15:38:28.430Z,34.33
2023-02-04T15:40:57.648Z,23.08
2023-02-04T15:43:24.234Z,22.85
2023-02-04T15:45:50.934Z,41.83
2023-02-04T15:48:20.063Z,37.28
2023-02-04T15:50:46.865Z,24.90
2023-02-04T15:53:13.586Z,18.17
2023-02-04T15:55:40.547Z,19.17
2023-02-04T15:58:07.457Z,14.98
2023-02-04T16:00:34.558Z,16.40
2023-02-04T16:03:01.817Z,18.48
2023-02-04T16:05:29.218Z,16.65
2023-02-04T16:07:55.896Z,19.88
2023-02-04T16:10:22.743Z,18.73
2023-02-04T16:12:49.610Z,18.00
2023-02-04T16:15:16.488Z,18.63
2023-02-04T16:17:43.365Z,13.70
2023-02-04T16:20:11.072Z,16.40
2023-02-04T16:22:37.603Z,19.00
2023-02-04T16:25:04.917Z,16.90
2023-02-04T16:27:31.929Z,16.15
2023-02-04T16:29:58.678Z,21.27
2023-02-04T16:32:25.497Z,17.40
2023-02-04T16:34:52.730Z,23.25
2023-02-04T16:37:19.524Z,18.98
2023-02-04T16:39:46.094Z,17.10
2023-02-04T16:42:12.880Z,16.20
2023-02-04T16:44:39.483Z,34.53
2023-02-04T16:47:07.546Z,14.68
2023-02-04T16:49:35.013Z,22.00
2023-02-04T16:52:05.176Z,16.10
2023-02-04T16:54:32.968Z,22.00
2023-02-04T16:57:00.756Z,15.00
2023-02-04T16:59:29.029Z,13.05
2023-02-04T17:02:01.050Z,19.73
2023-02-04T17:04:29.336Z,20.75
2023-02-04T17:06:56.708Z,16.80
2023-02-04T17:09:23.781Z,15.93
2023-02-04T17:11:51.115Z,19.85
2023-02-04T17:14:24.816Z,16.13
2023-02-04T17:16:51.934Z,18.60
2023-02-04T17:19:19.084Z,20.42
2023-02-04T17:21:45.988Z,20.50
2023-02-04T17:24:13.131Z,22.25
2023-02-04T17:26:40.524Z,21.25
2023-02-04T17:29:09.674Z,36.83
2023-02-04T17:31:36.654Z,21.55
2023-02-04T17:34:03.889Z,25.35
2023-02-04T17:36:31.319Z,31.55
2023-02-04T17:38:58.066Z,29.60
2023-02-04T17:41:24.683Z,21.83
2023-02-04T17:43:54.486Z,22.85
2023-02-04T17:46:22.197Z,23.40
2023-02-04T17:48:48.993Z,26.63
2023-02-04T17:51:18.282Z,20.67
2023-02-04T17:53:50.767Z,27.65
2023-02-04T17:56:17.686Z,26.50
2023-02-04T17:58:53.569Z,27.95
2023-02-04T18:01:22.750Z,39.60
2023-02-04T18:03:53.299Z,27.13
2023-02-04T18:06:41.545Z,96.57
2023-02-04T18:09:25.881Z,66.90
2023-02-04T18:12:13.157Z,31.98
2023-02-04T18:14:54.863Z,26.42
2023-02-04T18:17:25.552Z,25.30
2023-02-04T18:20:19.122Z,23.40
2023-02-04T18:22:48.848Z,19.55
2023-02-04T18:25:22.078Z,20.50
2023-02-04T18:27:50.391Z,23.25
2023-02-04T18:30:22.994Z,20.95
2023-02-04T18:32:50.211Z,32.22
2023-02-04T18:35:23.038Z,59.50
2023-02-04T18:37:52.979Z,52.38
2023-02-04T18:40:31.188Z,58.22
2023-02-04T18:43:10.871Z,68.65
2023-02-04T18:45:38.657Z,49.13
2023-02-04T18:48:23.867Z,38.67
2023-02-04T18:50:54.674Z,30.45
2023-02-04T18:53:28.979Z,16.75
2023-02-04T18:55:58.228Z,21.05
2023-02-04T18:58:31.262Z,18.77
2023-02-04T19:01:27.843Z,21.08
2023-02-04T19:04:03.487Z,16.30
2023-02-04T19:06:39.179Z,21.63
2023-02-04T19:09:31.003Z,18.60
2023-02-04T19:12:00.553Z,23.38
2023-02-04T19:14:39.085Z,19.15
2023-02-04T19:17:21.044Z,18.60
2023-02-04T19:19:58.125Z,20.27
2023-02-04T19:22:49.728Z,18.75
2023-02-04T19:25:22.745Z,19.75
2023-02-04T19:27:56.102Z,18.40
2023-02-04T19:30:29.134Z,17.27
2023-02-04T19:33:11.596Z,23.13
2023-02-04T19:35:46.934Z,18.70
2023-02-04T19:38:39.734Z,16.63
2023-02-04T19:41:28.454Z,18.17
2023-02-04T19:44:43.726Z,16.48
2023-02-04T19:47:28.079Z,20.27
2023-02-04T19:50:06.522Z,22.80
2023-02-04T19:52:38.274Z,25.45
2023-02-04T19:55:25.033Z,19.17
2023-02-04T19:58:00.056Z,18.92
2023-02-04T20:00:38.609Z,18.83
2023-02-04T20:03:36.875Z,19.70
2023-02-04T20:06:12.827Z,19.70
2023-02-04T20:09:11.171Z,22.27
2023-02-04T20:11:41.970Z,18.42
2023-02-04T20:14:14.823Z,19.73
2023-02-04T20:16:47.267Z,21.90
2023-02-04T20:19:31.285Z,18.67
2023-02-04T20:24:51.523Z,21.63
2023-02-04T20:27:27.501Z,24.63
2023-02-04T20:30:17.200Z,22.80
2023-02-04T20:32:46.788Z,27.83
2023-02-04T20:35:13.371Z,23.15
2023-02-04T20:37:41.838Z,29.08
2023-02-04T20:42:47.949Z,20.80
2023-02-04T20:45:27.961Z,24.58
2023-02-04T20:48:09.337Z,25.23
2023-02-04T20:50:42.964Z,26.45
2023-02-04T20:53:28.221Z,19.98
2023-02-04T20:56:04.252Z,25.48
2023-02-04T20:58:39.000Z,31.17
2023-02-04T21:01:30.123Z,24.48
2023-02-04T21:04:00.890Z,33.05
2023-02-04T21:06:32.239Z,27.55
2023-02-04T21:08:59.911Z,26.88
2023-02-04T21:11:26.964Z,28.35
2023-02-04T21:13:54.870Z,31.40
2023-02-04T21:16:22.159Z,27.85
2023-02-04T21:18:51.291Z,31.08
2023-02-04T21:21:21.351Z,31.02
2023-02-04T21:23:47.910Z,27.77
2023-02-04T21:26:14.854Z,29.35
2023-02-04T21:28:41.413Z,25.60
2023-02-04T21:31:08.715Z,25.30
2023-02-04T21:33:35.374Z,28.90
2023-02-04T21:36:04.529Z,31.85
2023-02-04T21:38:31.270Z,27.38
2023-02-04T21:40:57.927Z,31.60
2023-02-04T21:43:24.623Z,33.40
2023-02-04T21:45:51.400Z,36.33
2023-02-04T21:48:17.922Z,27.35
2023-02-04T21:50:44.520Z,30.60
2023-02-04T21:53:12.470Z,25.30
2023-02-04T21:56:01.665Z,32.20
2023-02-04T21:58:31.463Z,25.00
2023-02-04T22:00:58.266Z,23.23
2023-02-04T22:03:24.895Z,30.10
2023-02-04T22:05:52.365Z,26.83
2023-02-04T22:08:19.776Z,27.30
2023-02-04T22:10:46.551Z,32.90
2023-02-04T22:13:15.233Z,29.70
2023-02-04T22:15:41.883Z,28.27
2023-02-04T22:18:12.302Z,30.55
2023-02-04T22:20:39.610Z,30.08
2023-02-04T22:23:06.278Z,29.15
2023-02-04T22:25:38.858Z,31.80
2023-02-04T22:28:05.537Z,35.40
2023-02-04T22:30:32.141Z,30.30
2023-02-04T22:33:00.820Z,28.73
2023-02-04T22:35:29.720Z,32.75
2023-02-04T22:37:56.395Z,30.15
2023-02-04T22:40:22.973Z,37.47
2023-02-04T22:42:49.499Z,30.50
2023-02-04T22:45:16.158Z,29.85
2023-02-04T22:47:42.839Z,30.50
2023-02-04T22:50:09.568Z,29.25
2023-02-04T22:52:36.389Z,27.83
2023-02-04T22:55:03.144Z,26.23
2023-02-04T22:57:29.840Z,27.42
2023-02-04T22:59:56.336Z,24.75
2023-02-04T23:02:22.772Z,28.33
2023-02-04T23:04:49.320Z,27.58
2023-02-04T23:07:15.856Z,22.70
2023-02-04T23:09:42.818Z,27.42
2023-02-04T23:12:15.178Z,27.52
2023-02-04T23:14:44.082Z,27.85
2023-02-04T23:17:10.894Z,27.98
2023-02-04T23:19:37.476Z,28.13
2023-02-04T23:22:05.422Z,25.85
2023-02-04T23:24:32.309Z,25.52
2023-02-04T23:27:00.300Z,28.20
2023-02-04T23:29:32.253Z,26.17
2023-02-04T23:31:59.210Z,28.90
2023-02-04T23:34:25.688Z,28.20
2023-02-04T23:36:52.255Z,24.73
2023-02-04T23:39:20.717Z,24.60
2023-02-04T23:44:14.301Z,26.08
2023-02-04T23:46:40.917Z,29.85
2023-02-04T23:49:07.598Z,31.42
2023-02-04T23:51:34.388Z,33.50
2023-02-04T23:54:01.167Z,25.90
2023-02-04T23:56:28.316Z,29.10
2023-02-04T23:58:55.447Z,30.02
